Newick, United Kingdom
Current Conditions -  °F | °C
As of 1:20 AM on Tuesday 21 Oct 2014 (Local Time) from EGKK Reporting Station
Light Rain Light Rain  
Wind Chill: 55°   Ceiling: Unl
Heat Index: 55°   Visibility: 6mi
Dew Point: 52°   Wind: 10mph
Humidity: 88%   Direction: 210°SSW
Pressure: 29.85"   Gusts: NA
Location:  50.98°N, 0.02°E
Report Text: EGKK 210020Z 21009KT 170V240 9999 -RA SCT015 SCT030 13/11 Q1011
Loading
Personal Weather Stations






























Interactive Weather Map
Tropical Storm Tracking
New forecast layout! Learn more

10-Day Weather Forecast

Advertisements
Track Severe Weather on mobile